sensor_id;sensor_type;location;lat;lon;timestamp;pressure;altitude;pressure_sealevel;temperature;humidity
10652;BME280;5374;42.742;23.266;2023-03-03T00:01:38;95513.38;;;5.29;100.00
10652;BME280;5374;42.742;23.266;2023-03-03T00:04:25;95519.44;;;5.30;100.00
10652;BME280;5374;42.742;23.266;2023-03-03T00:07:13;95525.31;;;5.32;100.00
10652;BME280;5374;42.742;23.266;2023-03-03T00:10:07;95525.66;;;5.42;100.00
10652;BME280;5374;42.742;23.266;2023-03-03T00:12:54;95519.78;;;5.40;100.00
10652;BME280;5374;42.742;23.266;2023-03-03T00:15:41;95522.56;;;5.45;100.00
10652;BME280;5374;42.742;23.266;2023-03-03T00:18:33;95513.81;;;5.51;100.00
10652;BME280;5374;42.742;23.266;2023-03-03T00:21:31;95507.16;;;5.48;100.00
10652;BME280;5374;42.742;23.266;2023-03-03T00:24:22;95518.09;;;5.45;100.00
10652;BME280;5374;42.742;23.266;2023-03-03T00:27:16;95504.94;;;5.45;100.00
10652;BME280;5374;42.742;23.266;2023-03-03T00:30:16;95498.50;;;5.41;100.00
10652;BME280;5374;42.742;23.266;2023-03-03T00:33:13;95495.72;;;5.36;100.00
10652;BME280;5374;42.742;23.266;2023-03-03T00:36:30;95489.69;;;5.29;100.00
10652;BME280;5374;42.742;23.266;2023-03-03T00:39:29;95497.00;;;5.27;100.00
10652;BME280;5374;42.742;23.266;2023-03-03T00:42:18;95492.53;;;5.28;100.00
10652;BME280;5374;42.742;23.266;2023-03-03T00:45:21;95478.47;;;5.15;100.00
10652;BME280;5374;42.742;23.266;2023-03-03T00:48:21;95480.81;;;5.24;100.00
10652;BME280;5374;42.742;23.266;2023-03-03T00:51:20;95481.63;;;5.24;100.00
10652;BME280;5374;42.742;23.266;2023-03-03T00:54:11;95477.25;;;5.18;100.00
10652;BME280;5374;42.742;23.266;2023-03-03T00:57:01;95469.19;;;5.13;100.00
10652;BME280;5374;42.742;23.266;2023-03-03T00:59:48;95465.53;;;5.14;100.00
10652;BME280;5374;42.742;23.266;2023-03-03T01:02:36;95440.91;;;5.02;100.00
10652;BME280;5374;42.742;23.266;2023-03-03T01:05:23;95457.03;;;5.12;100.00
10652;BME280;5374;42.742;23.266;2023-03-03T01:08:10;95454.19;;;5.13;100.00
10652;BME280;5374;42.742;23.266;2023-03-03T01:10:58;95456.63;;;5.15;100.00
10652;BME280;5374;42.742;23.266;2023-03-03T01:13:48;95462.31;;;5.12;100.00
10652;BME280;5374;42.742;23.266;2023-03-03T01:16:36;95464.75;;;5.07;100.00
10652;BME280;5374;42.742;23.266;2023-03-03T01:19:23;95457.47;;;5.09;100.00
10652;BME280;5374;42.742;23.266;2023-03-03T01:22:11;95446.34;;;5.07;100.00
10652;BME280;5374;42.742;23.266;2023-03-03T01:24:58;95452.19;;;5.09;100.00
10652;BME280;5374;42.742;23.266;2023-03-03T01:27:45;95450.81;;;5.06;100.00
10652;BME280;5374;42.742;23.266;2023-03-03T01:30:34;95441.34;;;4.99;100.00
10652;BME280;5374;42.742;23.266;2023-03-03T01:33:21;95446.19;;;5.02;100.00
10652;BME280;5374;42.742;23.266;2023-03-03T01:36:08;95447.34;;;5.06;100.00
10652;BME280;5374;42.742;23.266;2023-03-03T01:38:55;95439.16;;;4.96;100.00
10652;BME280;5374;42.742;23.266;2023-03-03T01:41:43;95447.19;;;5.01;100.00
10652;BME280;5374;42.742;23.266;2023-03-03T01:44:30;95441.88;;;5.07;100.00
10652;BME280;5374;42.742;23.266;2023-03-03T01:47:19;95443.28;;;5.10;100.00
10652;BME280;5374;42.742;23.266;2023-03-03T01:50:11;95438.28;;;5.02;100.00
10652;BME280;5374;42.742;23.266;2023-03-03T01:53:02;95438.22;;;5.08;100.00
10652;BME280;5374;42.742;23.266;2023-03-03T01:55:51;95441.06;;;5.07;100.00
10652;BME280;5374;42.742;23.266;2023-03-03T01:58:41;95438.44;;;5.07;100.00
10652;BME280;5374;42.742;23.266;2023-03-03T02:01:30;95430.47;;;4.95;100.00
10652;BME280;5374;42.742;23.266;2023-03-03T02:04:20;95444.47;;;5.14;100.00
10652;BME280;5374;42.742;23.266;2023-03-03T02:07:09;95422.09;;;4.98;100.00
10652;BME280;5374;42.742;23.266;2023-03-03T02:09:58;95444.91;;;5.11;100.00
10652;BME280;5374;42.742;23.266;2023-03-03T02:12:49;95436.19;;;5.10;100.00
10652;BME280;5374;42.742;23.266;2023-03-03T02:15:36;95426.09;;;5.07;100.00
10652;BME280;5374;42.742;23.266;2023-03-03T02:18:24;95425.28;;;5.07;100.00
10652;BME280;5374;42.742;23.266;2023-03-03T02:21:14;95436.19;;;5.10;100.00
10652;BME280;5374;42.742;23.266;2023-03-03T02:24:06;95418.66;;;4.98;100.00
10652;BME280;5374;42.742;23.266;2023-03-03T02:26:56;95429.91;;;5.11;100.00
10652;BME280;5374;42.742;23.266;2023-03-03T02:29:43;95430.38;;;5.02;100.00
10652;BME280;5374;42.742;23.266;2023-03-03T02:32:31;95437.53;;;4.95;100.00
10652;BME280;5374;42.742;23.266;2023-03-03T02:35:27;95436.16;;;4.92;100.00
10652;BME280;5374;42.742;23.266;2023-03-03T02:38:21;95432.41;;;5.00;100.00
10652;BME280;5374;42.742;23.266;2023-03-03T02:41:17;95432.50;;;4.93;100.00
10652;BME280;5374;42.742;23.266;2023-03-03T02:44:11;95436.06;;;4.99;100.00
10652;BME280;5374;42.742;23.266;2023-03-03T02:47:00;95433.44;;;4.99;100.00
10652;BME280;5374;42.742;23.266;2023-03-03T02:49:47;95431.19;;;5.02;100.00
10652;BME280;5374;42.742;23.266;2023-03-03T02:52:34;95422.44;;;4.84;100.00
10652;BME280;5374;42.742;23.266;2023-03-03T02:55:22;95413.88;;;4.95;100.00
10652;BME280;5374;42.742;23.266;2023-03-03T02:58:09;95432.50;;;4.93;100.00
10652;BME280;5374;42.742;23.266;2023-03-03T03:00:58;95421.97;;;4.93;100.00
10652;BME280;5374;42.742;23.266;2023-03-03T03:03:45;95428.50;;;4.84;100.00
10652;BME280;5374;42.742;23.266;2023-03-03T03:06:32;95343.88;;;4.37;100.00
10652;BME280;5374;42.742;23.266;2023-03-03T03:09:21;95413.28;;;4.93;100.00
10652;BME280;5374;42.742;23.266;2023-03-03T03:12:09;95389.00;;;4.66;100.00
10652;BME280;5374;42.742;23.266;2023-03-03T03:14:57;95419.72;;;4.97;100.00
10652;BME280;5374;42.742;23.266;2023-03-03T03:17:45;95421.47;;;5.03;100.00
10652;BME280;5374;42.742;23.266;2023-03-03T03:20:35;95407.41;;;4.91;100.00
10652;BME280;5374;42.742;23.266;2023-03-03T03:23:22;95419.28;;;5.00;100.00
10652;BME280;5374;42.742;23.266;2023-03-03T03:26:09;95421.03;;;5.06;100.00
10652;BME280;5374;42.742;23.266;2023-03-03T03:28:57;95421.03;;;5.06;100.00
10652;BME280;5374;42.742;23.266;2023-03-03T03:31:44;95411.31;;;5.06;100.00
10652;BME280;5374;42.742;23.266;2023-03-03T03:34:33;95418.56;;;5.11;100.00
10652;BME280;5374;42.742;23.266;2023-03-03T03:37:20;95417.25;;;5.20;100.00
10652;BME280;5374;42.742;23.266;2023-03-03T03:40:08;95408.34;;;5.21;100.00
10652;BME280;5374;42.742;23.266;2023-03-03T03:42:55;95393.53;;;5.02;100.00
10652;BME280;5374;42.742;23.266;2023-03-03T03:45:43;95392.09;;;5.06;100.00
10652;BME280;5374;42.742;23.266;2023-03-03T03:48:30;95405.59;;;5.16;100.00
10652;BME280;5374;42.742;23.266;2023-03-03T03:51:18;95387.09;;;4.98;100.00
10652;BME280;5374;42.742;23.266;2023-03-03T03:54:06;95396.94;;;5.09;100.00
10652;BME280;5374;42.742;23.266;2023-03-03T03:56:53;95401.88;;;4.99;100.00
10652;BME280;5374;42.742;23.266;2023-03-03T03:59:40;95394.94;;;4.79;100.00
10652;BME280;5374;42.742;23.266;2023-03-03T04:02:27;95398.50;;;4.92;100.00
10652;BME280;5374;42.742;23.266;2023-03-03T04:05:15;95379.88;;;4.93;100.00
10652;BME280;5374;42.742;23.266;2023-03-03T04:08:04;95393.97;;;4.99;100.00
10652;BME280;5374;42.742;23.266;2023-03-03T04:10:51;95388.88;;;4.79;100.00
10652;BME280;5374;42.742;23.266;2023-03-03T04:13:38;95379.66;;;4.70;100.00
10652;BME280;5374;42.742;23.266;2023-03-03T04:16:25;95392.81;;;4.95;100.00
10652;BME280;5374;42.742;23.266;2023-03-03T04:19:12;95380.41;;;4.77;100.00
10652;BME280;5374;42.742;23.266;2023-03-03T04:21:59;95401.94;;;4.92;100.00
10652;BME280;5374;42.742;23.266;2023-03-03T04:24:48;95402.34;;;4.64;100.00
10652;BME280;5374;42.742;23.266;2023-03-03T04:27:35;95389.03;;;4.59;100.00
10652;BME280;5374;42.742;23.266;2023-03-03T04:30:23;95389.91;;;4.78;100.00
10652;BME280;5374;42.742;23.266;2023-03-03T04:33:10;95393.06;;;4.87;100.00
10652;BME280;5374;42.742;23.266;2023-03-03T04:35:57;95394.06;;;4.92;100.00
10652;BME280;5374;42.742;23.266;2023-03-03T04:38:44;95389.38;;;4.94;100.00
10652;BME280;5374;42.742;23.266;2023-03-03T04:41:33;95377.63;;;4.97;100.00
10652;BME280;5374;42.742;23.266;2023-03-03T04:44:20;95390.69;;;5.03;100.00
10652;BME280;5374;42.742;23.266;2023-03-03T04:47:07;95396.59;;;4.99;100.00
10652;BME280;5374;42.742;23.266;2023-03-03T04:49:54;95398.44;;;4.98;100.00
10652;BME280;5374;42.742;23.266;2023-03-03T04:52:41;95405.91;;;5.01;100.00
10652;BME280;5374;42.742;23.266;2023-03-03T04:55:28;95400.00;;;4.81;100.00
10652;BME280;5374;42.742;23.266;2023-03-03T04:58:17;95398.56;;;4.85;100.00
10652;BME280;5374;42.742;23.266;2023-03-03T05:01:05;95394.84;;;4.93;100.00
10652;BME280;5374;42.742;23.266;2023-03-03T05:03:52;95391.81;;;4.96;100.00
10652;BME280;5374;42.742;23.266;2023-03-03T05:06:39;95405.47;;;5.04;100.00
10652;BME280;5374;42.742;23.266;2023-03-03T05:09:26;95400.41;;;5.03;100.00
10652;BME280;5374;42.742;23.266;2023-03-03T05:12:14;95406.09;;;5.00;100.00
10652;BME280;5374;42.742;23.266;2023-03-03T05:15:04;95410.22;;;4.96;100.00
10652;BME280;5374;42.742;23.266;2023-03-03T05:17:51;95413.16;;;5.06;100.00
10652;BME280;5374;42.742;23.266;2023-03-03T05:20:41;95409.41;;;4.95;100.00
10652;BME280;5374;42.742;23.266;2023-03-03T05:23:28;95414.94;;;5.12;100.00
10652;BME280;5374;42.742;23.266;2023-03-03T05:26:16;95406.19;;;5.18;100.00
10652;BME280;5374;42.742;23.266;2023-03-03T05:29:03;95384.00;;;5.07;100.00
10652;BME280;5374;42.742;23.266;2023-03-03T05:31:52;95399.38;;;5.29;100.00
10652;BME280;5374;42.742;23.266;2023-03-03T05:34:39;95408.66;;;5.31;100.00
10652;BME280;5374;42.742;23.266;2023-03-03T05:37:26;95399.22;;;5.24;100.00
10652;BME280;5374;42.742;23.266;2023-03-03T05:40:14;95410.28;;;5.32;100.00
10652;BME280;5374;42.742;23.266;2023-03-03T05:43:01;95407.00;;;5.37;100.00
10652;BME280;5374;42.742;23.266;2023-03-03T05:45:53;95399.19;;;5.48;100.00
10652;BME280;5374;42.742;23.266;2023-03-03T05:48:42;95417.97;;;5.52;100.00
10652;BME280;5374;42.742;23.266;2023-03-03T05:51:30;95407.81;;;5.37;100.00
10652;BME280;5374;42.742;23.266;2023-03-03T05:54:17;95427.50;;;5.53;100.00
10652;BME280;5374;42.742;23.266;2023-03-03T05:57:04;95417.81;;;5.47;100.00
10652;BME280;5374;42.742;23.266;2023-03-03T05:59:51;95424.13;;;5.46;100.00
10652;BME280;5374;42.742;23.266;2023-03-03T06:02:39;95416.44;;;5.44;100.00
10652;BME280;5374;42.742;23.266;2023-03-03T06:05:28;95428.72;;;5.50;100.00
10652;BME280;5374;42.742;23.266;2023-03-03T06:08:16;95422.97;;;5.60;100.00
10652;BME280;5374;42.742;23.266;2023-03-03T06:11:03;95418.94;;;5.58;100.00
10652;BME280;5374;42.742;23.266;2023-03-03T06:13:50;95425.72;;;5.65;100.00
10652;BME280;5374;42.742;23.266;2023-03-03T06:16:37;95426.09;;;5.69;100.00
10652;BME280;5374;42.742;23.266;2023-03-03T06:19:25;95399.38;;;5.65;100.00
10652;BME280;5374;42.742;23.266;2023-03-03T06:22:13;95427.00;;;5.81;100.00
10652;BME280;5374;42.742;23.266;2023-03-03T06:25:00;95401.81;;;5.67;100.00
10652;BME280;5374;42.742;23.266;2023-03-03T06:27:48;95425.69;;;5.90;100.00
10652;BME280;5374;42.742;23.266;2023-03-03T06:30:35;95431.13;;;5.95;100.00
10652;BME280;5374;42.742;23.266;2023-03-03T06:33:22;95413.81;;;5.81;100.00
10652;BME280;5374;42.742;23.266;2023-03-03T06:36:09;95432.72;;;5.96;100.00
10652;BME280;5374;42.742;23.266;2023-03-03T06:38:58;95433.53;;;5.97;100.00
10652;BME280;5374;42.742;23.266;2023-03-03T06:41:45;95430.59;;;6.05;100.00
10652;BME280;5374;42.742;23.266;2023-03-03T06:44:32;95432.72;;;5.96;100.00
10652;BME280;5374;42.742;23.266;2023-03-03T06:47:20;95437.13;;;6.02;100.00
10652;BME280;5374;42.742;23.266;2023-03-03T06:50:09;95439.09;;;6.07;100.00
10652;BME280;5374;42.742;23.266;2023-03-03T06:53:01;95441.97;;;6.05;100.00
10652;BME280;5374;42.742;23.266;2023-03-03T06:55:53;95436.97;;;5.97;100.00
10652;BME280;5374;42.742;23.266;2023-03-03T06:58:40;95410.31;;;5.87;100.00
10652;BME280;5374;42.742;23.266;2023-03-03T07:01:34;95417.34;;;5.93;100.00
10652;BME280;5374;42.742;23.266;2023-03-03T07:04:25;95411.41;;;5.79;100.00
10652;BME280;5374;42.742;23.266;2023-03-03T07:07:17;95440.88;;;5.88;100.00
10652;BME280;5374;42.742;23.266;2023-03-03T07:10:11;95444.88;;;5.97;100.00
10652;BME280;5374;42.742;23.266;2023-03-03T07:13:18;95435.16;;;5.98;100.00
10652;BME280;5374;42.742;23.266;2023-03-03T07:16:11;95436.38;;;6.13;100.00
10652;BME280;5374;42.742;23.266;2023-03-03T07:19:00;95443.84;;;5.98;100.00
10652;BME280;5374;42.742;23.266;2023-03-03T07:21:49;95438.50;;;6.05;100.00
10652;BME280;5374;42.742;23.266;2023-03-03T07:24:37;95441.94;;;6.24;100.00
10652;BME280;5374;42.742;23.266;2023-03-03T07:27:26;95429.09;;;6.27;100.00
10652;BME280;5374;42.742;23.266;2023-03-03T07:30:24;95418.13;;;6.12;100.00
10652;BME280;5374;42.742;23.266;2023-03-03T07:33:18;95435.44;;;6.38;100.00
10652;BME280;5374;42.742;23.266;2023-03-03T07:36:23;95437.19;;;6.44;100.00
10652;BME280;5374;42.742;23.266;2023-03-03T07:39:27;95432.91;;;6.31;100.00
10652;BME280;5374;42.742;23.266;2023-03-03T07:42:21;95425.00;;;6.31;100.00
10652;BME280;5374;42.742;23.266;2023-03-03T07:45:26;95431.63;;;6.52;100.00
10652;BME280;5374;42.742;23.266;2023-03-03T07:48:21;95434.69;;;6.49;100.00
10652;BME280;5374;42.742;23.266;2023-03-03T07:51:13;95436.41;;;6.43;100.00
10652;BME280;5374;42.742;23.266;2023-03-03T07:54:15;95433.75;;;6.43;100.00
10652;BME280;5374;42.742;23.266;2023-03-03T07:57:11;95432.06;;;6.49;100.00
10652;BME280;5374;42.742;23.266;2023-03-03T08:03:15;95424.44;;;6.71;100.00
10652;BME280;5374;42.742;23.266;2023-03-03T08:06:10;95418.72;;;6.74;100.00
10652;BME280;5374;42.742;23.266;2023-03-03T08:09:30;95426.50;;;6.80;100.00
10652;BME280;5374;42.742;23.266;2023-03-03T08:12:41;95422.28;;;6.79;100.00
10652;BME280;5374;42.742;23.266;2023-03-03T08:15:35;95423.44;;;6.83;100.00
10652;BME280;5374;42.742;23.266;2023-03-03T08:21:23;95423.03;;;6.98;100.00
10652;BME280;5374;42.742;23.266;2023-03-03T08:24:10;95426.09;;;6.95;100.00
10652;BME280;5374;42.742;23.266;2023-03-03T08:26:58;95422.53;;;6.90;100.00
10652;BME280;5374;42.742;23.266;2023-03-03T08:29:45;95401.06;;;6.74;100.00
10652;BME280;5374;42.742;23.266;2023-03-03T08:32:32;95411.16;;;6.89;100.00
10652;BME280;5374;42.742;23.266;2023-03-03T08:35:19;95391.75;;;6.83;100.00
10652;BME280;5374;42.742;23.266;2023-03-03T08:38:08;95407.72;;;6.89;100.00
10652;BME280;5374;42.742;23.266;2023-03-03T08:40:56;95408.22;;;6.97;100.00
10652;BME280;5374;42.742;23.266;2023-03-03T08:43:43;95419.09;;;7.01;100.00
10652;BME280;5374;42.742;23.266;2023-03-03T08:46:31;95402.13;;;6.97;100.00
10652;BME280;5374;42.742;23.266;2023-03-03T08:49:18;95402.34;;;7.07;100.00
10652;BME280;5374;42.742;23.266;2023-03-03T08:52:05;95400.53;;;7.19;100.00
10652;BME280;5374;42.742;23.266;2023-03-03T08:54:54;95402.13;;;7.08;100.00
10652;BME280;5374;42.742;23.266;2023-03-03T08:57:41;95417.06;;;7.26;100.00
10652;BME280;5374;42.742;23.266;2023-03-03T09:00:28;95409.72;;;7.16;100.00
10652;BME280;5374;42.742;23.266;2023-03-03T09:03:16;95409.38;;;7.25;100.00
10652;BME280;5374;42.742;23.266;2023-03-03T09:06:04;95409.03;;;7.21;100.00
10652;BME280;5374;42.742;23.266;2023-03-03T09:08:52;95420.28;;;7.40;100.00
10652;BME280;5374;42.742;23.266;2023-03-03T09:11:41;95398.34;;;7.51;100.00
10652;BME280;5374;42.742;23.266;2023-03-03T09:14:29;95406.94;;;7.70;100.00
10652;BME280;5374;42.742;23.266;2023-03-03T09:17:23;95396.28;;;7.53;100.00
10652;BME280;5374;42.742;23.266;2023-03-03T09:20:31;95406.94;;;7.70;100.00
10652;BME280;5374;42.742;23.266;2023-03-03T09:23:32;95406.00;;;7.87;100.00
10652;BME280;5374;42.742;23.266;2023-03-03T09:26:41;95406.41;;;7.96;100.00
10652;BME280;5374;42.742;23.266;2023-03-03T09:29:35;95402.28;;;8.00;100.00
10652;BME280;5374;42.742;23.266;2023-03-03T09:32:30;95385.56;;;7.71;100.00
10652;BME280;5374;42.742;23.266;2023-03-03T09:35:32;95410.06;;;7.67;100.00
10652;BME280;5374;42.742;23.266;2023-03-03T09:38:26;95390.59;;;7.84;100.00
10652;BME280;5374;42.742;23.266;2023-03-03T09:41:36;95406.34;;;8.19;100.00
10652;BME280;5374;42.742;23.266;2023-03-03T09:44:39;95421.75;;;8.22;100.00
10652;BME280;5374;42.742;23.266;2023-03-03T09:47:46;95396.91;;;8.23;100.00
10652;BME280;5374;42.742;23.266;2023-03-03T09:50:47;95406.13;;;8.33;100.00
10652;BME280;5374;42.742;23.266;2023-03-03T09:53:46;95408.78;;;8.33;100.00
10652;BME280;5374;42.742;23.266;2023-03-03T09:56:41;95404.41;;;7.75;100.00
10652;BME280;5374;42.742;23.266;2023-03-03T09:59:46;95407.03;;;7.75;100.00
10652;BME280;5374;42.742;23.266;2023-03-03T10:02:45;95397.78;;;8.01;100.00
10652;BME280;5374;42.742;23.266;2023-03-03T10:05:42;95381.91;;;8.12;100.00
10652;BME280;5374;42.742;23.266;2023-03-03T10:08:45;95384.50;;;8.36;100.00
10652;BME280;5374;42.742;23.266;2023-03-03T10:11:41;95393.38;;;8.58;100.00
10652;BME280;5374;42.742;23.266;2023-03-03T10:14:47;95395.88;;;8.24;100.00
10652;BME280;5374;42.742;23.266;2023-03-03T10:17:44;95392.13;;;8.49;100.00
10652;BME280;5374;42.742;23.266;2023-03-03T10:20:42;95381.47;;;8.61;100.00
10652;BME280;5374;42.742;23.266;2023-03-03T10:23:44;95382.56;;;8.76;100.00
10652;BME280;5374;42.742;23.266;2023-03-03T10:26:47;95389.03;;;8.85;100.00
10652;BME280;5374;42.742;23.266;2023-03-03T10:29:46;95386.34;;;8.97;100.00
10652;BME280;5374;42.742;23.266;2023-03-03T10:32:42;95381.41;;;9.06;100.00
10652;BME280;5374;42.742;23.266;2023-03-03T10:35:40;95376.53;;;9.14;100.00
10652;BME280;5374;42.742;23.266;2023-03-03T10:38:44;95376.63;;;9.19;100.00
10652;BME280;5374;42.742;23.266;2023-03-03T10:41:40;95355.34;;;9.14;100.00
10652;BME280;5374;42.742;23.266;2023-03-03T10:48:10;95368.31;;;9.33;100.00
10652;BME280;5374;42.742;23.266;2023-03-03T10:51:07;95371.06;;;9.38;100.00
10652;BME280;5374;42.742;23.266;2023-03-03T10:54:14;95370.25;;;9.37;100.00
10652;BME280;5374;42.742;23.266;2023-03-03T10:57:13;95352.25;;;9.39;100.00
10652;BME280;5374;42.742;23.266;2023-03-03T11:00:15;95356.59;;;9.45;100.00
10652;BME280;5374;42.742;23.266;2023-03-03T11:06:44;95352.38;;;9.49;100.00
10652;BME280;5374;42.742;23.266;2023-03-03T11:10:00;95336.84;;;9.36;100.00
10652;BME280;5374;42.742;23.266;2023-03-03T11:12:58;95299.41;;;9.11;100.00
10652;BME280;5374;42.742;23.266;2023-03-03T11:16:09;95350.66;;;9.38;100.00
10652;BME280;5374;42.742;23.266;2023-03-03T11:19:11;95331.78;;;9.35;100.00
10652;BME280;5374;42.742;23.266;2023-03-03T11:22:13;95310.22;;;9.26;100.00
10652;BME280;5374;42.742;23.266;2023-03-03T11:25:18;95329.47;;;9.38;100.00
10652;BME280;5374;42.742;23.266;2023-03-03T11:28:36;95331.22;;;9.33;100.00
10652;BME280;5374;42.742;23.266;2023-03-03T11:31:35;95337.97;;;9.40;100.00
10652;BME280;5374;42.742;23.266;2023-03-03T11:34:41;95336.00;;;9.52;100.00
10652;BME280;5374;42.742;23.266;2023-03-03T11:37:40;95321.53;;;9.60;100.00
10652;BME280;5374;42.742;23.266;2023-03-03T11:40:47;95309.50;;;9.52;100.00
10652;BME280;5374;42.742;23.266;2023-03-03T11:43:38;95332.19;;;9.65;100.00
10652;BME280;5374;42.742;23.266;2023-03-03T11:46:33;95333.56;;;9.68;100.00
10652;BME280;5374;42.742;23.266;2023-03-03T11:49:32;95313.88;;;9.64;100.00
10652;BME280;5374;42.742;23.266;2023-03-03T11:52:27;95324.19;;;9.82;100.00
10652;BME280;5374;42.742;23.266;2023-03-03T11:55:24;95327.22;;;9.90;100.00
10652;BME280;5374;42.742;23.266;2023-03-03T11:58:19;95310.50;;;9.90;100.00
10652;BME280;5374;42.742;23.266;2023-03-03T12:01:18;95314.78;;;9.96;100.00
10652;BME280;5374;42.742;23.266;2023-03-03T12:04:23;95319.50;;;9.89;100.00
10652;BME280;5374;42.742;23.266;2023-03-03T12:07:24;95323.19;;;9.88;100.00
10652;BME280;5374;42.742;23.266;2023-03-03T12:10:27;95310.69;;;9.62;100.00
10652;BME280;5374;42.742;23.266;2023-03-03T12:13:20;95311.25;;;9.64;100.00
10652;BME280;5374;42.742;23.266;2023-03-03T12:16:23;95316.28;;;9.65;100.00
10652;BME280;5374;42.742;23.266;2023-03-03T12:22:30;95326.97;;;9.48;100.00
10652;BME280;5374;42.742;23.266;2023-03-03T12:25:29;95334.28;;;9.41;100.00
10652;BME280;5374;42.742;23.266;2023-03-03T12:28:19;95320.22;;;9.41;100.00
10652;BME280;5374;42.742;23.266;2023-03-03T12:31:15;95279.88;;;9.17;100.00
10652;BME280;5374;42.742;23.266;2023-03-03T12:34:14;95324.88;;;9.34;100.00
10652;BME280;5374;42.742;23.266;2023-03-03T12:37:17;95329.53;;;9.26;100.00
10652;BME280;5374;42.742;23.266;2023-03-03T12:40:08;95321.94;;;9.13;100.00
10652;BME280;5374;42.742;23.266;2023-03-03T12:43:10;95333.03;;;9.10;100.00
10652;BME280;5374;42.742;23.266;2023-03-03T12:46:06;95329.50;;;9.05;100.00
10652;BME280;5374;42.742;23.266;2023-03-03T12:48:58;95322.78;;;8.97;100.00
10652;BME280;5374;42.742;23.266;2023-03-03T12:52:01;95332.50;;;8.91;100.00
10652;BME280;5374;42.742;23.266;2023-03-03T12:55:10;95326.78;;;9.00;100.00
10652;BME280;5374;42.742;23.266;2023-03-03T12:58:05;95320.38;;;8.96;100.00
10652;BME280;5374;42.742;23.266;2023-03-03T13:01:04;95325.91;;;8.94;100.00
10652;BME280;5374;42.742;23.266;2023-03-03T13:04:02;95317.78;;;8.84;100.00
10652;BME280;5374;42.742;23.266;2023-03-03T13:06:54;95315.72;;;8.69;100.00
10652;BME280;5374;42.742;23.266;2023-03-03T13:09:56;95317.50;;;8.80;100.00
10652;BME280;5374;42.742;23.266;2023-03-03T13:12:49;95300.88;;;8.68;100.00
10652;BME280;5374;42.742;23.266;2023-03-03T13:15:43;95313.72;;;8.76;100.00
10652;BME280;5374;42.742;23.266;2023-03-03T13:18:46;95316.69;;;8.80;100.00
10652;BME280;5374;42.742;23.266;2023-03-03T13:21:40;95315.38;;;8.82;100.00
10652;BME280;5374;42.742;23.266;2023-03-03T13:24:32;95312.91;;;8.93;100.00
10652;BME280;5374;42.742;23.266;2023-03-03T13:27:24;95309.88;;;9.01;100.00
10652;BME280;5374;42.742;23.266;2023-03-03T13:30:20;95291.13;;;9.07;100.00
10652;BME280;5374;42.742;23.266;2023-03-03T13:33:14;95315.88;;;9.35;100.00
10652;BME280;5374;42.742;23.266;2023-03-03T13:36:06;95301.34;;;9.37;100.00
10652;BME280;5374;42.742;23.266;2023-03-03T13:38:57;95313.63;;;9.43;100.00
10652;BME280;5374;42.742;23.266;2023-03-03T13:41:49;95307.59;;;9.48;100.00
10652;BME280;5374;42.742;23.266;2023-03-03T13:44:42;95293.84;;;9.51;100.00
10652;BME280;5374;42.742;23.266;2023-03-03T13:47:41;95294.16;;;9.54;100.00
10652;BME280;5374;42.742;23.266;2023-03-03T13:50:38;95293.78;;;9.46;100.00
10652;BME280;5374;42.742;23.266;2023-03-03T13:53:36;95290.38;;;9.50;100.00
10652;BME280;5374;42.742;23.266;2023-03-03T13:56:38;95296.78;;;9.54;100.00
10652;BME280;5374;42.742;23.266;2023-03-03T13:59:35;95300.56;;;9.58;100.00
10652;BME280;5374;42.742;23.266;2023-03-03T14:02:42;95292.19;;;9.45;100.00
10652;BME280;5374;42.742;23.266;2023-03-03T14:05:37;95298.56;;;9.49;100.00
10652;BME280;5374;42.742;23.266;2023-03-03T14:08:42;95302.47;;;9.41;100.00
10652;BME280;5374;42.742;23.266;2023-03-03T14:11:40;95295.09;;;9.26;100.00
10652;BME280;5374;42.742;23.266;2023-03-03T14:14:42;95303.16;;;9.15;100.00
10652;BME280;5374;42.742;23.266;2023-03-03T14:17:36;95304.28;;;9.19;100.00
10652;BME280;5374;42.742;23.266;2023-03-03T14:20:28;95297.06;;;9.14;100.00
10652;BME280;5374;42.742;23.266;2023-03-03T14:23:24;95294.19;;;9.16;100.00
10652;BME280;5374;42.742;23.266;2023-03-03T14:26:17;95295.13;;;9.10;100.00
10652;BME280;5374;42.742;23.266;2023-03-03T14:29:18;95297.31;;;9.13;100.00
10652;BME280;5374;42.742;23.266;2023-03-03T14:32:20;95298.50;;;9.05;100.00
10652;BME280;5374;42.742;23.266;2023-03-03T14:35:14;95293.47;;;9.04;100.00
10652;BME280;5374;42.742;23.266;2023-03-03T14:38:11;95294.38;;;8.93;100.00
10652;BME280;5374;42.742;23.266;2023-03-03T14:41:14;95293.97;;;9.01;100.00
10652;BME280;5374;42.742;23.266;2023-03-03T14:44:20;95274.00;;;8.93;100.00
10652;BME280;5374;42.742;23.266;2023-03-03T14:47:20;95288.72;;;9.06;100.00
10652;BME280;5374;42.742;23.266;2023-03-03T14:50:28;95282.81;;;8.99;100.00
10652;BME280;5374;42.742;23.266;2023-03-03T14:53:22;95291.81;;;8.98;100.00
10652;BME280;5374;42.742;23.266;2023-03-03T14:56:20;95279.59;;;8.97;100.00
10652;BME280;5374;42.742;23.266;2023-03-03T14:59:16;95282.97;;;8.92;100.00
10652;BME280;5374;42.742;23.266;2023-03-03T15:02:28;95274.22;;;8.91;100.00
10652;BME280;5374;42.742;23.266;2023-03-03T15:05:19;95279.94;;;8.83;100.00
10652;BME280;5374;42.742;23.266;2023-03-03T15:08:09;95275.75;;;8.87;100.00
10652;BME280;5374;42.742;23.266;2023-03-03T15:11:19;95278.59;;;8.81;100.00
10652;BME280;5374;42.742;23.266;2023-03-03T15:14:13;95284.13;;;8.79;100.00
10652;BME280;5374;42.742;23.266;2023-03-03T15:17:23;95285.81;;;8.69;100.00
10652;BME280;5374;42.742;23.266;2023-03-03T15:20:39;95280.91;;;8.61;100.00
10652;BME280;5374;42.742;23.266;2023-03-03T15:23:37;95288.28;;;8.58;100.00
10652;BME280;5374;42.742;23.266;2023-03-03T15:26:40;95279.81;;;8.56;100.00
10652;BME280;5374;42.742;23.266;2023-03-03T15:29:35;95272.56;;;8.52;100.00
10652;BME280;5374;42.742;23.266;2023-03-03T15:32:27;95280.59;;;8.57;100.00
10652;BME280;5374;42.742;23.266;2023-03-03T15:35:25;95279.25;;;8.54;100.00